Time;durP1;ratioP1;P1;durP2;ratioP2;P2;SDS_P1;SDS_P2;PMS_P1;PMS_P2;Temp;Humidity;BMP_temperature;BMP_pressure;BME280_temperature;BME280_humidity;BME280_pressure;Samples;Min_cycle;Max_cycle;Signal;HPM_P1;HPM_P2
2021/06/20 00:01:33;;;;;;;;;4.33;4.33;;;;;25.53;52.56;98279.88;4785930;29;102204;-79
2021/06/20 00:04:01;;;;;;;;;6.33;4.67;;;;;25.53;52.42;98282.66;4793219;29;102301;-79
2021/06/20 00:06:31;;;;;;;;;6.67;6.67;;;;;25.49;52.52;98280.78;4777602;29;112008;-79
2021/06/20 00:08:59;;;;;;;;;6.00;5.00;;;;;25.57;52.58;98283.75;4794425;29;102655;-79
2021/06/20 00:11:26;;;;;;;;;7.00;7.00;;;;;25.45;52.55;98258.44;4772525;29;102270;-79
2021/06/20 00:13:54;;;;;;;;;5.33;5.33;;;;;25.53;52.36;98268.81;4771063;29;103864;-79
2021/06/20 00:16:23;;;;;;;;;6.00;5.67;;;;;25.56;52.36;98271.00;4780314;29;104793;-80
2021/06/20 00:18:52;;;;;;;;;7.00;6.00;;;;;25.49;52.24;98265.00;4762203;29;102419;-80
2021/06/20 00:21:23;;;;;;;;;5.33;5.33;;;;;25.55;52.01;98280.44;4786830;28;103792;-80
2021/06/20 00:23:59;;;;;;;;;3.00;3.00;;;;;25.57;52.56;98291.22;4780401;29;102596;-79
2021/06/20 00:26:35;;;;;;;;;6.00;6.00;;;;;25.52;52.52;98281.03;4797394;29;108561;-79
2021/06/20 00:29:11;;;;;;;;;6.00;6.00;;;;;25.53;52.39;98290.94;4759263;29;103225;-80
2021/06/20 00:31:44;;;;;;;;;6.00;6.00;;;;;25.43;52.40;98271.78;4773135;29;102569;-80
2021/06/20 00:34:17;;;;;;;;;4.67;4.67;;;;;25.50;52.37;98286.03;4793268;29;102626;-79
2021/06/20 00:36:49;;;;;;;;;6.33;4.67;;;;;25.50;52.31;98288.81;4780911;29;103634;-79
2021/06/20 00:39:28;;;;;;;;;6.67;6.00;;;;;25.51;52.23;98290.47;4785913;29;102202;-80
2021/06/20 00:42:01;;;;;;;;;6.67;5.33;;;;;25.39;52.16;98270.75;4784035;29;102244;-79
2021/06/20 00:44:47;;;;;;;;;4.67;4.33;;;;;25.42;52.32;98269.31;4750731;29;102131;-79
2021/06/20 00:47:24;;;;;;;;;4.67;4.67;;;;;25.49;52.18;98280.78;4714117;29;109451;-79
2021/06/20 00:50:00;;;;;;;;;6.33;6.33;;;;;25.47;52.25;98277.53;4808497;29;101966;-79
2021/06/20 00:52:39;;;;;;;;;5.00;5.00;;;;;25.42;52.16;98275.69;4780200;29;102420;-79
2021/06/20 00:55:15;;;;;;;;;5.00;5.00;;;;;25.47;52.36;98277.53;4759561;28;102678;-79
2021/06/20 00:57:51;;;;;;;;;5.00;5.00;;;;;25.47;51.86;98275.59;4763791;29;102614;-80
2021/06/20 01:00:23;;;;;;;;;5.67;5.00;;;;;25.45;51.70;98274.22;4765283;29;102729;-79
2021/06/20 01:02:56;;;;;;;;;5.00;4.67;;;;;25.39;51.85;98258.88;4728106;29;102706;-79
2021/06/20 01:05:31;;;;;;;;;6.00;6.00;;;;;25.44;51.74;98264.31;4743886;29;102441;-79
2021/06/20 01:08:03;;;;;;;;;5.33;5.00;;;;;25.38;51.69;98248.91;4750276;29;103376;-80
2021/06/20 01:10:36;;;;;;;;;5.33;5.00;;;;;25.42;51.81;98264.59;4748861;29;102599;-79
2021/06/20 01:13:15;;;;;;;;;5.67;4.00;;;;;25.32;51.64;98248.19;4753375;29;102172;-79
2021/06/20 01:15:51;;;;;;;;;5.67;5.33;;;;;25.35;51.61;98250.34;4712903;29;102730;-80
2021/06/20 01:18:30;;;;;;;;;5.00;5.00;;;;;25.36;51.37;98260.28;4754840;29;103408;-80
2021/06/20 01:21:05;;;;;;;;;7.00;5.67;;;;;25.34;51.43;98248.69;4732395;29;102450;-79
2021/06/20 01:23:43;;;;;;;;;4.33;4.33;;;;;25.36;51.88;98254.75;4766322;29;102736;-80
2021/06/20 01:26:19;;;;;;;;;4.67;4.67;;;;;25.36;51.47;98246.44;4744530;29;102750;-79
2021/06/20 01:29:02;;;;;;;;;6.33;6.33;;;;;25.29;51.81;98241.31;4775959;28;103617;-80
2021/06/20 01:31:48;;;;;;;;;5.33;5.33;;;;;25.33;51.60;98250.66;4784356;28;102462;-79
2021/06/20 01:34:23;;;;;;;;;5.33;5.00;;;;;25.33;51.66;98241.53;4714916;29;101790;-80
2021/06/20 01:37:00;;;;;;;;;4.33;4.33;;;;;25.30;51.54;98234.66;4759351;29;102242;-79
2021/06/20 01:39:36;;;;;;;;;6.67;4.00;;;;;25.31;51.29;98232.69;4781490;29;103050;-79
2021/06/20 01:42:14;;;;;;;;;6.67;6.00;;;;;25.30;51.36;98223.59;4786012;29;103869;-79
2021/06/20 01:44:53;;;;;;;;;7.00;6.00;;;;;25.28;51.66;98230.53;4763226;28;102469;-80
2021/06/20 01:47:30;;;;;;;;;6.00;5.33;;;;;25.27;51.76;98217.81;4781392;29;102372;-78
2021/06/20 01:50:09;;;;;;;;;5.67;5.00;;;;;25.27;52.18;98218.66;4774498;29;103102;-79
2021/06/20 01:52:44;;;;;;;;;6.00;5.33;;;;;25.19;51.55;98201.94;4782127;29;102360;-79
2021/06/20 01:55:19;;;;;;;;;6.00;5.00;;;;;25.23;51.35;98200.19;4726028;29;102342;-79
2021/06/20 01:57:52;;;;;;;;;4.00;4.00;;;;;25.29;51.42;98221.13;4806596;29;102692;-80
2021/06/20 02:00:23;;;;;;;;;7.00;6.00;;;;;25.29;51.49;98221.13;4777670;29;104695;-79
2021/06/20 02:03:05;;;;;;;;;6.00;6.00;;;;;25.17;51.52;98195.91;4789626;29;102787;-79
2021/06/20 02:05:41;;;;;;;;;5.00;5.00;;;;;25.28;51.05;98213.94;4794563;29;102194;-79
2021/06/20 02:08:18;;;;;;;;;5.00;5.00;;;;;25.20;51.25;98198.03;4788209;29;104078;-80
2021/06/20 02:10:56;;;;;;;;;6.00;5.67;;;;;25.21;51.68;98205.22;4769957;29;103054;-79
2021/06/20 02:13:30;;;;;;;;;5.33;5.33;;;;;25.18;51.44;98203.06;4800247;29;102086;-79
2021/06/20 02:16:08;;;;;;;;;7.00;6.00;;;;;25.25;51.36;98198.78;4806022;29;102563;-79
2021/06/20 02:18:44;;;;;;;;;5.00;5.00;;;;;25.23;51.51;98205.72;4779986;29;102266;-80
2021/06/20 02:21:18;;;;;;;;;6.00;6.00;;;;;25.19;51.30;98188.09;4783404;29;109271;-79
2021/06/20 02:23:55;;;;;;;;;6.00;5.67;;;;;25.12;51.28;98182.97;4775226;29;108962;-79
2021/06/20 02:26:31;;;;;;;;;5.33;5.33;;;;;25.11;51.07;98180.50;4780711;29;110640;-79
2021/06/20 02:29:04;;;;;;;;;5.33;5.00;;;;;25.19;51.17;98188.09;4801622;29;102184;-79
2021/06/20 02:31:36;;;;;;;;;6.67;6.00;;;;;25.16;50.52;98177.66;4789888;29;102104;-79
2021/06/20 02:34:14;;;;;;;;;6.00;5.00;;;;;25.07;50.83;98174.78;4759957;29;102404;-80
2021/06/20 02:36:52;;;;;;;;;6.00;6.00;;;;;25.12;51.00;98187.69;4723100;29;102558;-79
2021/06/20 02:39:26;;;;;;;;;5.00;5.00;;;;;25.07;50.83;98182.25;4784195;29;102210;-80
2021/06/20 02:42:02;;;;;;;;;6.33;6.33;;;;;25.09;51.10;98194.63;4790273;29;102747;-79
2021/06/20 02:44:36;;;;;;;;;5.67;5.67;;;;;25.07;50.76;98191.38;4774966;29;102658;-80
2021/06/20 02:47:12;;;;;;;;;4.67;4.33;;;;;25.07;50.43;98201.63;4780431;29;102552;-79
2021/06/20 02:49:57;;;;;;;;;5.67;4.33;;;;;25.00;50.20;98187.34;4717080;29;102666;-79
2021/06/20 02:52:33;;;;;;;;;8.00;7.33;;;;;25.05;50.16;98199.13;4753787;29;104309;-79
2021/06/20 02:55:06;;;;;;;;;5.67;5.67;;;;;25.07;50.26;98198.84;4776853;29;102089;-79
2021/06/20 02:57:38;;;;;;;;;6.00;6.00;;;;;25.03;50.22;98186.75;4783334;29;102059;-79
2021/06/20 03:00:13;;;;;;;;;6.67;6.67;;;;;25.04;50.00;98180.91;4774224;29;102308;-79
2021/06/20 03:02:50;;;;;;;;;5.00;5.00;;;;;25.03;49.91;98183.97;4721728;29;106899;-79
2021/06/20 03:05:21;;;;;;;;;4.00;4.00;;;;;25.07;50.01;98187.78;4802288;29;102632;-78
2021/06/20 03:07:54;;;;;;;;;8.00;7.67;;;;;24.97;49.70;98166.66;4776213;29;102534;-79
2021/06/20 03:10:25;;;;;;;;;5.33;5.00;;;;;25.03;49.63;98172.91;4787266;29;103483;-79
2021/06/20 03:12:52;;;;;;;;;5.33;5.00;;;;;25.01;49.51;98175.16;4794464;29;103238;-79
2021/06/20 03:15:19;;;;;;;;;5.67;5.67;;;;;25.00;49.66;98170.75;4781738;29;102610;-79
2021/06/20 03:17:47;;;;;;;;;6.67;5.00;;;;;24.97;49.54;98157.53;4803629;29;102458;-80
2021/06/20 03:20:15;;;;;;;;;6.67;6.33;;;;;25.01;49.54;98173.22;4782673;29;103696;-79
2021/06/20 03:22:42;;;;;;;;;5.00;5.00;;;;;25.00;49.58;98173.50;4779852;29;105643;-81
2021/06/20 03:25:10;;;;;;;;;5.67;4.67;;;;;24.94;49.52;98167.28;4792595;29;102203;-79
2021/06/20 03:27:37;;;;;;;;;6.00;5.67;;;;;24.98;49.75;98167.47;4794878;29;104426;-80
2021/06/20 03:30:05;;;;;;;;;5.67;5.67;;;;;24.98;49.73;98173.00;4780805;29;103534;-79
2021/06/20 03:32:33;;;;;;;;;6.00;5.00;;;;;24.88;49.66;98161.00;4791144;29;104083;-79
2021/06/20 03:35:00;;;;;;;;;6.00;6.00;;;;;24.97;49.68;98179.66;4786553;29;102352;-79
2021/06/20 03:37:27;;;;;;;;;5.33;4.67;;;;;24.94;49.48;98181.09;4771792;29;105608;-79
2021/06/20 03:39:55;;;;;;;;;4.67;4.67;;;;;24.96;49.25;98183.53;4791983;29;102206;-79
2021/06/20 03:42:22;;;;;;;;;5.33;5.33;;;;;24.97;49.14;98185.19;4781585;29;104040;-79
2021/06/20 03:44:49;;;;;;;;;5.00;5.00;;;;;24.95;49.37;98184.69;4794079;29;102587;-79
2021/06/20 03:47:17;;;;;;;;;5.33;5.33;;;;;24.92;49.47;98180.56;4790792;29;102250;-79
2021/06/20 03:49:44;;;;;;;;;5.33;5.33;;;;;24.89;49.03;98175.66;4784393;29;102326;-79
2021/06/20 03:52:11;;;;;;;;;5.33;4.33;;;;;24.93;49.05;98189.69;4800721;29;103781;-79
2021/06/20 03:54:38;;;;;;;;;6.00;6.00;;;;;24.84;49.06;98190.38;4797334;29;102228;-79
2021/06/20 03:57:06;;;;;;;;;6.00;5.00;;;;;24.90;49.02;98198.63;4781279;29;102536;-79
2021/06/20 03:59:33;;;;;;;;;4.00;4.00;;;;;24.91;49.07;98197.47;4781166;29;104661;-79
2021/06/20 04:02:00;;;;;;;;;5.00;5.00;;;;;24.80;49.17;98189.34;4805269;28;104725;-79
2021/06/20 04:04:27;;;;;;;;;6.67;6.67;;;;;24.87;49.23;98211.09;4796283;29;102473;-79
2021/06/20 04:06:55;;;;;;;;;5.00;5.00;;;;;24.86;49.18;98207.50;4779657;29;102466;-79
2021/06/20 04:09:22;;;;;;;;;6.00;5.00;;;;;24.87;49.12;98219.38;4796749;29;102491;-79
2021/06/20 04:11:49;;;;;;;;;6.00;5.00;;;;;24.85;48.78;98211.38;4776305;29;104267;-79
2021/06/20 04:14:16;;;;;;;;;5.00;5.00;;;;;24.84;48.76;98215.25;4782685;29;102141;-79
2021/06/20 04:16:44;;;;;;;;;5.33;5.33;;;;;24.87;49.09;98231.28;4774385;29;102175;-79
2021/06/20 04:19:11;;;;;;;;;5.00;5.00;;;;;24.87;48.78;98228.50;4787064;29;101949;-79
2021/06/20 04:21:38;;;;;;;;;7.00;6.00;;;;;24.78;48.86;98212.88;4789971;29;109923;-79
2021/06/20 04:24:06;;;;;;;;;7.00;5.00;;;;;24.82;48.88;98217.50;4786244;29;102271;-79
2021/06/20 04:26:33;;;;;;;;;5.00;5.00;;;;;24.84;48.90;98220.78;4777013;29;103207;-79
2021/06/20 04:29:01;;;;;;;;;4.67;4.33;;;;;24.77;48.65;98209.28;4791143;29;102515;-79
2021/06/20 04:31:29;;;;;;;;;5.00;5.00;;;;;24.84;48.53;98220.78;4789026;29;103526;-78
2021/06/20 04:33:56;;;;;;;;;5.00;5.00;;;;;24.75;48.90;98208.78;4789154;29;102491;-79
2021/06/20 04:36:24;;;;;;;;;6.00;6.00;;;;;24.83;48.71;98216.38;4791573;29;102063;-79
2021/06/20 04:38:51;;;;;;;;;5.33;5.00;;;;;24.79;48.62;98204.28;4798471;29;102759;-79
2021/06/20 04:41:20;;;;;;;;;7.00;6.00;;;;;24.77;48.81;98192.69;4786132;29;105646;-80
2021/06/20 04:46:34;;;;;;;;;4.67;4.67;;;;;24.75;48.86;98183.06;4787745;29;110593;-78
2021/06/20 04:49:05;;;;;;;;;5.33;5.33;;;;;24.73;48.68;98180.59;4782796;29;102559;-79
2021/06/20 04:51:35;;;;;;;;;4.33;4.33;;;;;24.80;49.08;98194.88;4811285;29;104707;-79
2021/06/20 04:54:03;;;;;;;;;5.00;5.00;;;;;24.77;48.89;98192.69;4786017;29;102442;-79
2021/06/20 04:56:31;;;;;;;;;6.00;5.67;;;;;24.73;48.81;98191.66;4793075;29;102137;-79
2021/06/20 04:58:59;;;;;;;;;5.00;5.00;;;;;24.75;48.86;98191.38;4782527;29;102992;-79
2021/06/20 05:01:29;;;;;;;;;5.33;5.00;;;;;24.75;49.11;98203.25;4795694;29;104253;-79
2021/06/20 05:03:56;;;;;;;;;4.00;4.00;;;;;24.79;49.29;98218.09;4763028;29;102667;-79
2021/06/20 05:06:23;;;;;;;;;5.67;5.00;;;;;24.75;49.23;98211.53;4803950;29;102402;-79
2021/06/20 05:08:51;;;;;;;;;6.00;6.00;;;;;24.80;48.93;98218.94;4769092;29;102430;-79
2021/06/20 05:11:18;;;;;;;;;6.00;5.00;;;;;24.76;49.06;98218.72;4795010;28;104114;-79
2021/06/20 05:13:45;;;;;;;;;6.00;5.00;;;;;24.71;49.33;98195.84;4788987;29;103516;-79
2021/06/20 05:16:12;;;;;;;;;4.00;4.00;;;;;24.74;49.15;98203.53;4776245;29;102430;-79
2021/06/20 05:18:40;;;;;;;;;4.00;4.00;;;;;24.81;49.32;98204.00;4802337;29;102288;-80
2021/06/20 05:21:07;;;;;;;;;5.33;4.67;;;;;24.84;48.79;98222.72;4789757;29;103729;-79
2021/06/20 05:23:35;;;;;;;;;4.00;4.00;;;;;24.77;49.06;98220.34;4800671;29;102311;-80
2021/06/20 05:26:02;;;;;;;;;9.33;6.00;;;;;24.84;48.55;98231.84;4764071;29;102066;-79
2021/06/20 05:28:29;;;;;;;;;5.00;5.00;;;;;24.84;48.84;98236.56;4788728;29;102844;-80
2021/06/20 05:30:57;;;;;;;;;5.00;4.33;;;;;24.87;48.77;98245.09;4787811;29;104705;-79
2021/06/20 05:33:24;;;;;;;;;5.33;5.33;;;;;24.81;48.93;98234.41;4791729;29;104984;-79
2021/06/20 05:35:51;;;;;;;;;5.00;4.33;;;;;24.92;48.66;98258.03;4811541;29;103841;-80
2021/06/20 05:38:18;;;;;;;;;5.00;5.00;;;;;24.83;48.35;98235.75;4789168;29;102519;-79
2021/06/20 05:40:45;;;;;;;;;6.00;6.00;;;;;24.93;48.77;98256.09;4802369;29;104110;-79
2021/06/20 05:43:13;;;;;;;;;6.00;5.33;;;;;24.92;48.60;98249.72;4797466;29;102401;-80
2021/06/20 05:45:40;;;;;;;;;6.00;5.00;;;;;24.95;48.75;98262.94;4751831;29;109055;-78
2021/06/20 05:48:08;;;;;;;;;5.33;5.33;;;;;24.87;48.81;98250.63;4777799;29;102950;-79
2021/06/20 05:50:38;;;;;;;;;6.00;4.33;;;;;24.96;48.61;98272.06;4805600;29;103070;-79
2021/06/20 05:53:06;;;;;;;;;4.67;4.67;;;;;24.93;48.61;98267.16;4786523;29;102467;-79
2021/06/20 05:55:33;;;;;;;;;4.33;4.00;;;;;24.97;48.64;98269.00;4800353;29;102809;-79
2021/06/20 05:58:01;;;;;;;;;4.33;4.00;;;;;24.98;48.68;98267.06;4779117;29;102668;-79
2021/06/20 06:00:28;;;;;;;;;6.00;4.33;;;;;24.94;48.90;98258.56;4771102;29;104046;-80
2021/06/20 06:02:59;;;;;;;;;5.00;5.00;;;;;24.91;48.87;98247.25;4785228;29;104913;-79
2021/06/20 06:05:26;;;;;;;;;6.00;5.00;;;;;24.94;48.76;98252.19;4774820;29;102534;-79
2021/06/20 06:07:54;;;;;;;;;4.33;4.33;;;;;24.92;48.85;98243.38;4776334;29;102474;-79
2021/06/20 06:10:26;;;;;;;;;5.00;4.00;;;;;24.99;49.03;98261.22;4794516;29;104058;-79
2021/06/20 06:12:54;;;;;;;;;5.33;5.00;;;;;24.95;48.91;98254.66;4772972;29;102599;-79
2021/06/20 06:15:22;;;;;;;;;5.00;5.00;;;;;25.00;49.01;98262.84;4783960;29;102196;-78
2021/06/20 06:17:49;;;;;;;;;7.50;5.50;;;;;24.98;49.13;98264.31;4789900;29;102480;-80
2021/06/20 06:20:17;;;;;;;;;6.00;4.00;;;;;24.94;49.11;98257.72;4779542;29;103068;-79
2021/06/20 06:22:44;;;;;;;;;5.33;4.67;;;;;25.02;49.17;98265.34;4778535;29;102421;-79
2021/06/20 06:25:12;;;;;;;;;4.00;4.00;;;;;25.02;49.01;98259.81;4804321;29;102253;-79
2021/06/20 06:27:40;;;;;;;;;5.33;5.33;;;;;25.02;48.93;98263.38;4779611;29;102401;-79
2021/06/20 06:30:09;;;;;;;;;5.00;4.00;;;;;25.02;49.15;98255.09;4771711;29;104444;-79
2021/06/20 06:32:39;;;;;;;;;6.00;6.00;;;;;25.04;49.01;98252.81;4793957;29;102483;-79
2021/06/20 06:35:07;;;;;;;;;4.67;4.67;;;;;25.03;49.29;98239.31;4794998;29;102309;-79
2021/06/20 06:37:35;;;;;;;;;5.33;4.00;;;;;24.98;49.18;98225.56;4784790;29;103731;-79
2021/06/20 06:40:03;;;;;;;;;5.00;4.00;;;;;25.01;49.42;98230.47;4788410;29;103372;-79
2021/06/20 06:42:31;;;;;;;;;4.00;4.00;;;;;24.97;49.26;98224.75;4777250;29;102611;-79
2021/06/20 06:44:58;;;;;;;;;6.00;5.33;;;;;25.04;49.56;98227.94;4795283;29;101985;-79
2021/06/20 06:47:28;;;;;;;;;5.67;4.33;;;;;25.03;49.48;98225.47;4790001;29;102215;-79
2021/06/20 06:49:56;;;;;;;;;4.00;4.00;;;;;25.07;49.37;98229.28;4780639;29;104363;-78
2021/06/20 06:52:24;;;;;;;;;4.00;4.00;;;;;25.07;49.43;98227.34;4789398;29;102453;-79
2021/06/20 06:54:51;;;;;;;;;3.33;3.33;;;;;25.07;49.37;98234.81;4802201;29;102350;-79
2021/06/20 06:57:19;;;;;;;;;5.00;5.00;;;;;25.01;49.30;98219.41;4782360;29;102710;-79
2021/06/20 06:59:47;;;;;;;;;4.67;4.33;;;;;25.02;49.39;98213.59;4779513;29;104094;-79
2021/06/20 07:02:15;;;;;;;;;4.67;4.67;;;;;25.01;49.41;98211.94;4792128;29;102335;-79
2021/06/20 07:04:42;;;;;;;;;6.00;6.00;;;;;25.10;49.50;98225.91;4792622;29;102204;-79
2021/06/20 07:07:09;;;;;;;;;3.00;3.00;;;;;25.10;49.58;98229.50;4794188;29;102732;-79
2021/06/20 07:09:37;;;;;;;;;4.33;4.33;;;;;25.03;49.48;98222.72;4797639;28;103193;-80
2021/06/20 07:12:04;;;;;;;;;5.00;4.00;;;;;25.13;49.69;98236.34;4784596;29;102436;-79
2021/06/20 07:14:34;;;;;;;;;4.00;4.00;;;;;25.11;49.66;98242.22;4804049;29;102661;-79
2021/06/20 07:17:05;;;;;;;;;4.00;3.67;;;;;25.13;49.83;98239.94;4791239;29;102222;-79
2021/06/20 07:19:34;;;;;;;;;6.00;5.00;;;;;25.05;49.67;98231.53;4777487;29;103043;-79
2021/06/20 07:22:05;;;;;;;;;4.00;4.00;;;;;25.14;49.72;98246.28;4798677;29;102228;-79
2021/06/20 07:24:33;;;;;;;;;5.00;4.67;;;;;25.13;49.89;98237.16;4795143;29;102358;-79
2021/06/20 07:27:00;;;;;;;;;4.00;4.00;;;;;25.11;49.84;98242.22;4794936;29;102190;-80
2021/06/20 07:29:28;;;;;;;;;5.00;4.67;;;;;25.11;49.73;98230.31;4793484;29;104619;-79
2021/06/20 07:32:00;;;;;;;;;4.33;4.00;;;;;25.15;49.79;98232.16;4781031;29;102749;-79
2021/06/20 07:34:27;;;;;;;;;3.33;3.00;;;;;25.17;49.64;98229.91;4777397;29;102011;-80
2021/06/20 07:36:55;;;;;;;;;5.00;5.00;;;;;25.11;49.82;98219.25;4815106;29;102293;-79
2021/06/20 07:39:22;;;;;;;;;4.00;4.00;;;;;25.15;49.70;98228.56;4762206;29;104210;-79
2021/06/20 07:41:49;;;;;;;;;4.33;4.33;;;;;25.18;49.69;98228.78;4787742;29;102237;-79
2021/06/20 07:44:16;;;;;;;;;3.67;3.33;;;;;25.16;49.95;98224.69;4799408;29;102750;-80
2021/06/20 07:46:44;;;;;;;;;5.00;4.67;;;;;25.17;49.83;98218.03;4767367;29;103112;-79
2021/06/20 07:49:11;;;;;;;;;5.00;4.00;;;;;25.20;49.92;98228.50;4787954;29;109945;-79
2021/06/20 07:51:39;;;;;;;;;4.00;4.00;;;;;25.12;49.89;98204.28;4798550;29;102178;-79
2021/06/20 07:54:07;;;;;;;;;4.00;3.33;;;;;25.21;49.77;98208.00;4784446;29;103074;-79
2021/06/20 07:56:34;;;;;;;;;4.00;4.00;;;;;25.22;49.92;98210.44;4804826;29;102159;-78
2021/06/20 07:59:01;;;;;;;;;4.00;3.00;;;;;25.15;49.93;98193.44;4774141;29;104204;-79
2021/06/20 08:01:30;;;;;;;;;4.00;4.00;;;;;25.20;49.81;98198.03;4778666;29;103886;-79
2021/06/20 08:03:58;;;;;;;;;4.00;4.00;;;;;25.15;49.84;98187.88;4782367;29;102495;-79
2021/06/20 08:06:26;;;;;;;;;4.33;3.33;;;;;25.22;49.95;98198.53;4792155;29;102200;-79
2021/06/20 08:08:56;;;;;;;;;3.00;3.00;;;;;25.17;49.92;98190.38;4785391;29;104088;-79
2021/06/20 08:11:23;;;;;;;;;5.67;5.67;;;;;25.24;50.06;98197.13;4797680;29;102014;-80
2021/06/20 08:13:51;;;;;;;;;4.00;4.00;;;;;25.15;49.99;98187.88;4802173;29;102375;-79
2021/06/20 08:16:18;;;;;;;;;5.00;5.00;;;;;25.25;49.87;98197.94;4780493;29;102569;-80
2021/06/20 08:18:46;;;;;;;;;4.33;4.33;;;;;25.28;49.79;98205.63;4764840;29;104066;-79
2021/06/20 08:21:13;;;;;;;;;4.33;4.33;;;;;25.28;50.06;98208.41;4807733;29;102388;-80
2021/06/20 08:23:41;;;;;;;;;4.00;4.00;;;;;25.29;49.82;98218.34;4784298;29;102475;-79
2021/06/20 08:26:08;;;;;;;;;4.33;4.33;;;;;25.24;50.07;98204.59;4795109;29;102637;-79
2021/06/20 08:28:35;;;;;;;;;3.00;3.00;;;;;25.29;49.85;98201.75;4794204;28;104189;-79
2021/06/20 08:31:03;;;;;;;;;4.00;4.00;;;;;25.27;50.07;98195.69;4785550;29;107870;-80
2021/06/20 08:33:30;;;;;;;;;4.00;4.00;;;;;25.25;49.89;98192.41;4800636;29;102537;-79
2021/06/20 08:35:57;;;;;;;;;3.00;3.00;;;;;25.30;50.14;98206.97;4774597;29;102179;-79
2021/06/20 08:38:24;;;;;;;;;4.67;4.00;;;;;25.28;50.08;98191.78;4780289;29;104012;-79
2021/06/20 08:40:54;;;;;;;;;3.33;3.00;;;;;25.25;49.99;98192.41;4801577;29;102419;-80
2021/06/20 08:43:22;;;;;;;;;3.67;3.67;;;;;25.23;50.14;98189.94;4781777;29;102635;-79
2021/06/20 08:45:53;;;;;;;;;3.00;3.00;;;;;25.24;50.01;98188.00;4770962;29;102644;-79
2021/06/20 08:48:21;;;;;;;;;3.33;3.00;;;;;25.34;50.09;98215.50;4797320;29;104206;-80
2021/06/20 08:50:49;;;;;;;;;4.67;3.67;;;;;25.26;49.95;98196.84;4799284;29;107988;-81
2021/06/20 08:53:17;;;;;;;;;6.00;5.00;;;;;25.28;50.21;98197.34;4794546;29;102343;-79
2021/06/20 08:55:45;;;;;;;;;4.33;3.67;;;;;25.36;49.75;98201.31;4788727;29;103478;-79
2021/06/20 08:58:18;;;;;;;;;5.00;4.00;;;;;25.30;50.16;98179.31;4768725;29;103208;-79
2021/06/20 09:00:46;;;;;;;;;4.00;4.00;;;;;25.37;50.04;98184.41;4770569;29;102450;-79
2021/06/20 09:03:14;;;;;;;;;4.00;4.00;;;;;25.32;50.07;98174.25;4794232;29;103070;-79
2021/06/20 09:05:59;;;;;;;;;3.00;3.00;;;;;25.32;50.02;98173.44;4771927;29;102873;-79
2021/06/20 09:08:27;;;;;;;;;4.33;4.00;;;;;25.31;50.19;98166.25;4707454;29;107705;-79
2021/06/20 09:10:56;;;;;;;;;5.00;5.00;;;;;25.29;50.09;98163.81;4789748;29;102788;-79
2021/06/20 09:13:30;;;;;;;;;4.00;4.00;;;;;25.41;50.14;98179.91;4762680;29;102615;-79
2021/06/20 09:16:04;;;;;;;;;4.33;4.33;;;;;25.41;49.93;98173.53;4768417;29;102314;-79
2021/06/20 09:18:31;;;;;;;;;3.00;3.00;;;;;25.32;49.99;98165.97;4791733;29;103059;-79
2021/06/20 09:20:58;;;;;;;;;4.00;4.00;;;;;25.41;50.04;98171.59;4779328;29;102028;-80
2021/06/20 09:23:25;;;;;;;;;4.67;4.67;;;;;25.39;50.14;98160.03;4778988;29;102561;-79
2021/06/20 09:25:57;;;;;;;;;2.67;2.67;;;;;25.39;50.08;98159.22;4789859;29;102270;-80
2021/06/20 09:28:32;;;;;;;;;3.00;3.00;;;;;25.43;49.98;98158.28;4766500;29;104035;-79
2021/06/20 09:31:01;;;;;;;;;3.00;3.00;;;;;25.39;50.24;98143.41;4780782;29;103003;-79
2021/06/20 09:33:32;;;;;;;;;5.67;4.67;;;;;25.38;50.22;98132.66;4769082;29;102538;-79
2021/06/20 09:35:59;;;;;;;;;4.00;4.00;;;;;25.45;50.14;98142.16;4783465;29;102282;-79
2021/06/20 09:38:30;;;;;;;;;5.00;4.00;;;;;25.47;50.19;98142.69;4784675;29;102549;-79
2021/06/20 09:41:01;;;;;;;;;3.33;3.33;;;;;25.40;50.18;98133.97;4808570;29;102042;-79
2021/06/20 09:43:29;;;;;;;;;4.00;3.00;;;;;25.47;50.20;98141.88;4795228;28;102509;-80
2021/06/20 09:45:57;;;;;;;;;3.00;3.00;;;;;25.46;50.27;98124.44;4772145;29;102415;-79
2021/06/20 09:48:28;;;;;;;;;3.67;3.67;;;;;25.48;50.11;98136.03;4789534;29;103781;-79
2021/06/20 09:50:57;;;;;;;;;4.33;3.33;;;;;25.43;49.89;98116.75;4779751;29;102103;-79
2021/06/20 09:53:50;;;;;;;;;4.00;4.00;;;;;25.51;50.22;98131.81;4774858;29;102942;-80
2021/06/20 09:56:25;;;;;;;;;4.00;3.00;;;;;25.53;50.02;98127.59;4801199;28;105618;-79
2021/06/20 09:59:04;;;;;;;;;4.00;3.00;;;;;25.45;50.16;98114.47;4790718;29;108863;-79
2021/06/20 10:01:33;;;;;;;;;3.00;3.00;;;;;25.49;50.08;98122.97;4778472;29;102740;-79
2021/06/20 10:04:01;;;;;;;;;4.00;3.00;;;;;25.50;50.10;98133.75;4788235;29;102209;-79
2021/06/20 10:06:28;;;;;;;;;5.67;3.67;;;;;25.50;50.09;98122.69;4783186;29;102734;-79
2021/06/20 10:08:56;;;;;;;;;4.00;3.33;;;;;25.45;49.93;98113.66;4795357;29;104199;-80
2021/06/20 10:11:24;;;;;;;;;3.67;3.67;;;;;25.51;50.17;98113.25;4807913;29;103626;-79
2021/06/20 10:13:51;;;;;;;;;4.33;4.00;;;;;25.47;50.23;98109.47;4787855;29;102470;-80
2021/06/20 10:16:22;;;;;;;;;3.33;3.33;;;;;25.59;50.17;98120.03;4781915;29;102833;-79
2021/06/20 10:19:05;;;;;;;;;2.67;2.00;;;;;25.51;50.21;98118.78;4813297;29;107627;-80
2021/06/20 10:21:35;;;;;;;;;3.33;3.00;;;;;25.60;50.27;98127.22;4715338;28;102634;-79
2021/06/20 10:24:08;;;;;;;;;4.00;4.00;;;;;25.57;50.17;98133.38;4780197;29;102435;-79
2021/06/20 10:26:37;;;;;;;;;4.00;3.67;;;;;25.63;50.11;98129.34;4789196;29;103591;-79
2021/06/20 10:29:21;;;;;;;;;2.67;2.00;;;;;25.59;50.26;98133.88;4791474;29;104640;-79
2021/06/20 10:31:49;;;;;;;;;3.00;3.00;;;;;25.52;50.17;98117.66;4775297;29;102166;-79
2021/06/20 10:34:28;;;;;;;;;3.33;3.00;;;;;25.64;50.15;98133.78;4787581;29;102616;-80
2021/06/20 10:36:58;;;;;;;;;3.00;3.00;;;;;25.58;50.32;98119.22;4785648;29;102480;-80
2021/06/20 10:39:26;;;;;;;;;2.67;2.67;;;;;25.64;50.15;98120.75;4767045;29;104269;-79
2021/06/20 10:42:03;;;;;;;;;3.33;3.00;;;;;25.64;50.22;98123.53;4809525;28;102181;-80
2021/06/20 10:44:47;;;;;;;;;3.00;3.00;;;;;25.61;50.20;98124.16;4803524;29;102987;-79
2021/06/20 10:47:31;;;;;;;;;3.33;2.67;;;;;25.64;50.14;98122.69;4764752;29;102677;-80
2021/06/20 10:50:06;;;;;;;;;3.00;3.00;;;;;25.60;50.17;98116.97;4708771;29;108341;-79
2021/06/20 10:52:33;;;;;;;;;3.33;3.33;;;;;25.68;50.19;98119.00;4792777;29;102677;-80
2021/06/20 10:55:09;;;;;;;;;3.33;3.33;;;;;25.62;50.03;98114.69;4771467;29;103567;-79
2021/06/20 10:57:50;;;;;;;;;4.33;3.33;;;;;25.60;50.10;98111.44;4803112;29;102335;-79
2021/06/20 11:00:24;;;;;;;;;4.00;4.00;;;;;25.65;50.13;98119.63;4806142;28;108563;-80
2021/06/20 11:02:54;;;;;;;;;3.33;3.00;;;;;25.71;50.21;98132.22;4797607;29;102170;-81
2021/06/20 11:05:23;;;;;;;;;3.00;3.00;;;;;25.64;50.00;98115.22;4792426;28;102730;-79
2021/06/20 11:08:05;;;;;;;;;2.33;2.33;;;;;25.70;50.13;98125.06;4806143;29;102270;-80
2021/06/20 11:10:32;;;;;;;;;4.33;3.33;;;;;25.65;50.20;98108.56;4782478;29;103134;-79
2021/06/20 11:13:04;;;;;;;;;3.00;3.00;;;;;25.74;50.21;98123.31;4788267;29;102168;-79
2021/06/20 11:15:35;;;;;;;;;4.00;4.00;;;;;25.70;50.10;98105.66;4804125;29;102294;-80
2021/06/20 11:18:06;;;;;;;;;3.33;3.33;;;;;25.67;50.24;98105.44;4788816;29;105353;-79
2021/06/20 11:20:34;;;;;;;;;2.00;2.00;;;;;25.68;50.16;98107.91;4773550;29;104354;-79
2021/06/20 11:23:03;;;;;;;;;4.00;3.33;;;;;25.69;50.09;98097.66;4792726;29;102382;-79
2021/06/20 11:25:32;;;;;;;;;3.67;3.67;;;;;25.72;50.05;98114.47;4795368;29;103683;-79
2021/06/20 11:28:00;;;;;;;;;4.00;3.33;;;;;25.79;50.11;98107.69;4773090;29;102683;-79
2021/06/20 11:30:27;;;;;;;;;3.00;3.00;;;;;25.79;50.10;98102.97;4782524;28;104560;-79
2021/06/20 11:32:55;;;;;;;;;3.00;3.00;;;;;25.80;50.21;98110.16;4797130;29;104415;-79
2021/06/20 11:35:22;;;;;;;;;3.00;3.00;;;;;25.77;50.08;98100.50;4774593;29;102265;-80
2021/06/20 11:37:53;;;;;;;;;2.67;2.67;;;;;25.75;50.18;98100.03;4793057;29;103552;-79
2021/06/20 11:40:24;;;;;;;;;2.00;2.00;;;;;25.80;50.15;98098.25;4783044;29;107645;-79
2021/06/20 11:42:53;;;;;;;;;3.00;3.00;;;;;25.77;50.19;98100.50;4797262;29;102084;-79